createdAt,value
2023-08-04T00:00:53.179Z,1.50
2023-08-04T00:03:30.757Z,1.60
2023-08-04T00:05:58.737Z,1.60
2023-08-04T00:08:26.582Z,1.80
2023-08-04T00:10:54.416Z,1.60
2023-08-04T00:13:23.198Z,1.70
2023-08-04T00:15:51.201Z,2.20
2023-08-04T00:18:19.090Z,1.40
2023-08-04T00:20:50.856Z,1.60
2023-08-04T00:23:18.983Z,1.80
2023-08-04T00:25:53.375Z,1.60
2023-08-04T00:28:21.307Z,1.90
2023-08-04T00:30:50.259Z,1.90
2023-08-04T00:33:25.406Z,1.70
2023-08-04T00:35:53.762Z,1.60
2023-08-04T00:38:21.614Z,1.90
2023-08-04T00:40:49.575Z,1.30
2023-08-04T00:43:18.628Z,1.50
2023-08-04T00:45:46.461Z,1.40
2023-08-04T00:48:15.246Z,1.60
2023-08-04T00:50:43.995Z,1.50
2023-08-04T00:53:13.064Z,1.80
2023-08-04T00:55:43.335Z,1.90
2023-08-04T00:58:11.209Z,1.70
2023-08-04T01:00:40.148Z,1.60
2023-08-04T01:03:08.469Z,2.60
2023-08-04T01:05:48.656Z,1.80
2023-08-04T01:08:34.981Z,1.80
2023-08-04T01:11:11.798Z,1.80
2023-08-04T01:13:48.593Z,1.50
2023-08-04T01:16:16.675Z,1.70
2023-08-04T01:18:44.544Z,1.90
2023-08-04T01:21:12.547Z,1.80
2023-08-04T01:23:40.479Z,1.70
2023-08-04T01:26:19.242Z,1.70
2023-08-04T01:28:48.809Z,1.70
2023-08-04T01:31:18.039Z,2.00
2023-08-04T01:33:45.990Z,1.80
2023-08-04T01:36:13.925Z,1.40
2023-08-04T01:38:42.498Z,1.60
2023-08-04T01:41:10.746Z,1.70
2023-08-04T01:43:38.627Z,1.40
2023-08-04T01:46:06.645Z,1.90
2023-08-04T01:48:34.541Z,1.80
2023-08-04T01:51:02.458Z,2.20
2023-08-04T01:53:30.535Z,2.00
2023-08-04T01:55:58.359Z,2.10
2023-08-04T01:58:26.225Z,1.50
2023-08-04T02:00:54.167Z,1.80
2023-08-04T02:03:22.401Z,1.60
2023-08-04T02:05:51.794Z,1.60
2023-08-04T02:08:19.657Z,1.40
2023-08-04T02:10:51.541Z,1.50
2023-08-04T02:13:19.773Z,1.80
2023-08-04T02:15:47.735Z,2.00
2023-08-04T02:18:15.798Z,1.40
2023-08-04T02:20:43.569Z,1.70
2023-08-04T02:23:12.390Z,1.50
2023-08-04T02:25:40.370Z,1.90
2023-08-04T02:28:08.950Z,1.40
2023-08-04T02:30:36.821Z,1.60
2023-08-04T02:33:08.503Z,1.90
2023-08-04T02:35:36.521Z,1.60
2023-08-04T02:38:04.414Z,1.60
2023-08-04T02:40:38.631Z,2.00
2023-08-04T02:43:06.723Z,1.60
2023-08-04T02:45:35.294Z,2.00
2023-08-04T02:48:03.462Z,1.60
2023-08-04T02:50:31.510Z,1.70
2023-08-04T02:52:59.367Z,1.70
2023-08-04T02:55:30.923Z,1.80
2023-08-04T02:57:58.895Z,1.60
2023-08-04T03:00:27.297Z,2.20
2023-08-04T03:02:55.259Z,1.70
2023-08-04T03:05:24.250Z,1.90
2023-08-04T03:07:52.225Z,1.50
2023-08-04T03:10:20.185Z,2.20
2023-08-04T03:12:48.208Z,1.70
2023-08-04T03:15:26.163Z,1.80
2023-08-04T03:17:58.068Z,1.60
2023-08-04T03:20:26.118Z,1.60
2023-08-04T03:22:53.944Z,1.40
2023-08-04T03:25:21.893Z,1.40
2023-08-04T03:27:49.893Z,1.60
2023-08-04T03:30:18.314Z,1.30
2023-08-04T03:32:46.208Z,1.80
2023-08-04T03:35:14.301Z,1.50
2023-08-04T03:37:42.177Z,1.50
2023-08-04T03:40:10.672Z,1.30
2023-08-04T03:42:39.775Z,1.30
2023-08-04T03:45:08.755Z,1.40
2023-08-04T03:47:36.825Z,1.70
2023-08-04T03:50:06.519Z,1.70
2023-08-04T03:52:34.795Z,2.00
2023-08-04T03:55:02.774Z,1.60
2023-08-04T03:57:30.713Z,1.50
2023-08-04T03:59:58.582Z,1.80
2023-08-04T04:02:26.483Z,1.80
2023-08-04T04:04:54.474Z,1.60
2023-08-04T04:07:22.525Z,1.50
2023-08-04T04:09:50.425Z,1.70
2023-08-04T04:12:18.255Z,1.90
2023-08-04T04:14:46.090Z,1.90
2023-08-04T04:17:14.439Z,2.00
2023-08-04T04:19:52.926Z,1.30
2023-08-04T04:22:20.776Z,1.60
2023-08-04T04:24:49.062Z,1.90
2023-08-04T04:27:17.103Z,1.60
2023-08-04T04:29:45.092Z,1.90
2023-08-04T04:32:12.908Z,1.70
2023-08-04T04:34:41.874Z,1.90
2023-08-04T04:37:09.816Z,1.80
2023-08-04T04:39:37.715Z,1.90
2023-08-04T04:42:06.751Z,2.20
2023-08-04T04:44:34.925Z,2.10
2023-08-04T04:47:03.045Z,2.30
2023-08-04T04:49:31.040Z,2.10
2023-08-04T04:51:59.027Z,2.10
2023-08-04T04:54:28.553Z,2.10
2023-08-04T04:56:57.013Z,2.20
2023-08-04T04:59:24.996Z,3.20
2023-08-04T05:01:52.926Z,1.60
2023-08-04T05:04:27.627Z,2.30
2023-08-04T05:06:59.497Z,1.80
2023-08-04T05:09:27.605Z,2.00
2023-08-04T05:11:55.435Z,1.60
2023-08-04T05:14:23.345Z,1.70
2023-08-04T05:16:51.209Z,1.10
2023-08-04T05:19:19.136Z,1.70
2023-08-04T05:21:47.248Z,2.20
2023-08-04T05:24:15.305Z,1.80
2023-08-04T05:26:43.261Z,1.80
2023-08-04T05:29:18.118Z,1.80
2023-08-04T05:31:46.418Z,1.50
2023-08-04T05:34:14.541Z,1.60
2023-08-04T05:36:42.519Z,2.70
2023-08-04T05:39:10.477Z,1.90
2023-08-04T05:41:38.355Z,1.70
2023-08-04T05:44:06.308Z,2.00
2023-08-04T05:46:34.057Z,2.20
2023-08-04T05:49:02.197Z,2.30
2023-08-04T05:51:30.160Z,1.80
2023-08-04T05:53:58.018Z,1.60
2023-08-04T05:56:25.811Z,1.80
2023-08-04T05:58:53.723Z,1.80
2023-08-04T06:01:21.628Z,1.60
2023-08-04T06:03:49.877Z,1.90
2023-08-04T06:06:18.712Z,1.80
2023-08-04T06:08:47.092Z,1.60
2023-08-04T06:11:15.193Z,2.10
2023-08-04T06:13:43.256Z,2.10
2023-08-04T06:16:11.241Z,1.80
2023-08-04T06:18:39.399Z,1.60
2023-08-04T06:21:11.859Z,1.70
2023-08-04T06:23:46.621Z,2.20
2023-08-04T06:26:14.693Z,2.00
2023-08-04T06:28:42.686Z,2.10
2023-08-04T06:31:10.542Z,2.00
2023-08-04T06:33:39.621Z,1.70
2023-08-04T06:36:08.235Z,1.90
2023-08-04T06:38:36.431Z,1.60
2023-08-04T06:41:04.405Z,1.30
2023-08-04T06:43:32.313Z,1.10
2023-08-04T06:46:00.623Z,1.70
2023-08-04T06:48:29.154Z,1.50
2023-08-04T06:50:57.031Z,1.20
2023-08-04T06:53:24.906Z,1.40
2023-08-04T06:55:52.930Z,1.50
2023-08-04T06:58:21.245Z,1.20
2023-08-04T07:00:56.039Z,1.30
2023-08-04T07:03:24.267Z,1.60
2023-08-04T07:05:53.017Z,1.20
2023-08-04T07:08:21.345Z,1.40
2023-08-04T07:10:49.535Z,1.50
2023-08-04T07:13:17.514Z,1.20
2023-08-04T07:15:59.549Z,1.90
2023-08-04T07:18:27.703Z,1.50
2023-08-04T07:21:05.416Z,1.40
2023-08-04T07:23:33.454Z,1.20
2023-08-04T07:26:03.786Z,1.30
2023-08-04T07:28:36.517Z,1.00
2023-08-04T07:31:06.014Z,1.50
2023-08-04T07:33:34.847Z,1.50
2023-08-04T07:36:04.762Z,1.30
2023-08-04T07:38:33.522Z,1.10
2023-08-04T07:41:10.061Z,1.10
2023-08-04T07:43:38.250Z,1.60
2023-08-04T07:46:14.672Z,1.20
2023-08-04T07:48:43.017Z,1.50
2023-08-04T07:51:18.241Z,1.50
2023-08-04T07:53:51.167Z,1.50
2023-08-04T07:56:19.701Z,1.30
2023-08-04T07:58:48.875Z,1.20
2023-08-04T08:01:24.528Z,1.20
2023-08-04T08:04:04.174Z,1.30
2023-08-04T08:06:34.036Z,1.30
2023-08-04T08:09:02.260Z,1.30
2023-08-04T08:11:30.142Z,2.10
2023-08-04T08:14:00.739Z,1.50
2023-08-04T08:16:31.559Z,1.10
2023-08-04T08:18:59.989Z,2.60
2023-08-04T08:21:27.955Z,1.50
2023-08-04T08:29:56.977Z,1.00
2023-08-04T08:32:52.941Z,0.90
2023-08-04T08:35:21.478Z,1.00
2023-08-04T08:37:50.117Z,1.60
2023-08-04T08:40:19.608Z,1.00
2023-08-04T08:42:48.375Z,1.10
2023-08-04T08:45:16.260Z,1.00
2023-08-04T08:48:05.781Z,0.90
2023-08-04T08:50:35.736Z,1.20
2023-08-04T08:53:10.929Z,1.80
2023-08-04T08:55:40.216Z,1.00
2023-08-04T08:58:09.743Z,0.80
2023-08-04T09:00:38.036Z,1.00
2023-08-04T09:03:07.069Z,1.10
2023-08-04T09:05:35.429Z,0.90
2023-08-04T09:08:04.383Z,0.90
2023-08-04T09:10:35.579Z,1.30
2023-08-04T09:13:08.611Z,1.00
2023-08-04T09:16:01.873Z,2.30
2023-08-04T09:18:38.209Z,1.50
2023-08-04T09:21:09.069Z,1.00
2023-08-04T09:23:38.140Z,1.10
2023-08-04T09:26:06.128Z,1.50
2023-08-04T09:28:34.105Z,1.00
2023-08-04T09:31:03.708Z,0.90
2023-08-04T09:33:34.839Z,1.10
2023-08-04T09:36:05.180Z,1.00
2023-08-04T09:38:35.574Z,1.00
2023-08-04T09:41:08.198Z,1.20
2023-08-04T09:43:45.349Z,1.10
2023-08-04T09:46:19.145Z,1.10
2023-08-04T09:48:48.428Z,1.10
2023-08-04T09:51:23.291Z,1.10
2023-08-04T09:53:54.252Z,0.90
2023-08-04T09:56:30.065Z,1.20
2023-08-04T09:58:59.965Z,1.00
2023-08-04T10:01:28.534Z,1.00
2023-08-04T10:03:58.833Z,1.30
2023-08-04T10:06:27.536Z,1.50
2023-08-04T10:08:57.160Z,1.00
2023-08-04T10:11:25.130Z,1.30
2023-08-04T10:13:56.740Z,0.90
2023-08-04T10:16:35.255Z,1.20
2023-08-04T10:19:06.710Z,1.10
2023-08-04T10:21:40.850Z,1.30
2023-08-04T10:24:10.711Z,1.30
2023-08-04T10:26:57.093Z,1.30
2023-08-04T10:29:36.200Z,1.00
2023-08-04T10:32:08.685Z,1.20
2023-08-04T10:34:41.928Z,2.10
2023-08-04T10:37:12.860Z,1.30
2023-08-04T10:39:46.445Z,1.50
2023-08-04T10:42:23.098Z,1.00
2023-08-04T10:45:04.548Z,1.20
2023-08-04T10:47:36.017Z,1.20
2023-08-04T10:50:13.375Z,1.20
2023-08-04T10:52:45.225Z,1.10
2023-08-04T10:55:15.086Z,1.10
2023-08-04T10:57:43.763Z,1.40
2023-08-04T11:00:12.888Z,1.00
2023-08-04T11:02:40.890Z,1.10
2023-08-04T11:05:12.951Z,1.10
2023-08-04T11:07:49.148Z,0.90
2023-08-04T11:10:18.013Z,1.40
2023-08-04T11:12:45.938Z,1.20
2023-08-04T11:15:13.975Z,1.20
2023-08-04T11:17:43.973Z,0.70
2023-08-04T11:22:47.972Z,1.00
2023-08-04T11:25:16.264Z,1.10
2023-08-04T11:27:46.446Z,1.30
2023-08-04T11:30:17.067Z,1.00
2023-08-04T11:32:52.288Z,1.10
2023-08-04T11:35:20.989Z,1.30
2023-08-04T11:37:50.499Z,2.10
2023-08-04T11:40:39.670Z,1.10
2023-08-04T11:43:07.684Z,1.10
2023-08-04T11:45:35.752Z,1.50
2023-08-04T11:48:03.943Z,1.20
2023-08-04T11:50:32.460Z,1.30
2023-08-04T11:53:01.052Z,1.30
2023-08-04T11:55:38.892Z,1.30
2023-08-04T11:58:07.425Z,1.50
2023-08-04T12:00:37.625Z,1.50
2023-08-04T12:03:14.665Z,1.20
2023-08-04T12:05:43.605Z,1.50
2023-08-04T12:08:16.965Z,1.20
2023-08-04T12:10:45.066Z,1.50
2023-08-04T12:13:35.722Z,1.40
2023-08-04T12:16:04.536Z,1.40
2023-08-04T12:18:32.571Z,1.20
2023-08-04T12:21:00.707Z,1.40
2023-08-04T12:23:29.606Z,1.40
2023-08-04T12:25:57.963Z,1.60
2023-08-04T12:28:26.055Z,1.20
2023-08-04T12:33:25.435Z,1.40
2023-08-04T12:35:54.002Z,1.80
2023-08-04T12:38:22.053Z,1.10
2023-08-04T12:40:50.032Z,1.30
2023-08-04T12:43:17.959Z,1.30
2023-08-04T12:45:46.000Z,1.90
2023-08-04T12:48:13.870Z,1.30
2023-08-04T12:50:42.570Z,1.80
2023-08-04T12:53:11.185Z,1.20
2023-08-04T12:55:39.134Z,1.40
2023-08-04T12:58:07.167Z,1.30
2023-08-04T13:00:37.122Z,1.40
2023-08-04T13:03:15.397Z,1.00
2023-08-04T13:05:43.793Z,1.60
2023-08-04T13:08:12.087Z,1.80
2023-08-04T13:10:40.060Z,1.20
2023-08-04T13:13:07.982Z,1.90
2023-08-04T13:15:35.961Z,1.50
2023-08-04T13:18:04.111Z,1.40
2023-08-04T13:20:32.638Z,1.60
2023-08-04T13:23:00.790Z,1.40
2023-08-04T13:25:29.044Z,1.40
2023-08-04T13:27:57.688Z,1.30
2023-08-04T13:30:25.691Z,1.60
2023-08-04T13:32:53.903Z,1.40
2023-08-04T13:35:28.825Z,1.50
2023-08-04T13:37:56.945Z,1.80
2023-08-04T13:40:24.990Z,1.40
2023-08-04T13:42:53.494Z,1.80
2023-08-04T13:45:22.092Z,1.60
2023-08-04T13:47:50.855Z,1.20
2023-08-04T13:50:19.344Z,1.20
2023-08-04T13:52:47.507Z,1.20
2023-08-04T13:55:15.496Z,1.40
2023-08-04T13:57:43.622Z,1.30
2023-08-04T14:00:13.411Z,1.30
2023-08-04T14:02:42.682Z,1.40
2023-08-04T14:05:11.491Z,1.20
2023-08-04T14:07:42.428Z,1.20
2023-08-04T14:10:11.563Z,1.20
2023-08-04T14:12:39.452Z,1.20
2023-08-04T14:15:07.940Z,1.40
2023-08-04T14:17:42.329Z,1.10
2023-08-04T14:20:14.995Z,1.30
2023-08-04T14:22:44.404Z,1.40
2023-08-04T14:25:12.268Z,1.00
2023-08-04T14:27:40.104Z,1.30
2023-08-04T14:30:08.715Z,1.10
2023-08-04T14:32:39.902Z,1.20
2023-08-04T14:35:08.714Z,1.40
2023-08-04T14:37:37.221Z,1.50
2023-08-04T14:40:05.696Z,1.40
2023-08-04T14:42:33.630Z,1.40
2023-08-04T14:45:04.312Z,1.10
2023-08-04T14:47:32.538Z,1.80
2023-08-04T14:50:01.324Z,1.30
2023-08-04T14:52:29.337Z,1.20
2023-08-04T14:54:57.350Z,1.30
2023-08-04T14:57:25.366Z,1.20
2023-08-04T14:59:54.065Z,1.60
2023-08-04T15:02:22.122Z,1.70
2023-08-04T15:04:54.317Z,1.60
2023-08-04T15:07:27.190Z,1.20
2023-08-04T15:09:58.251Z,1.40
2023-08-04T15:12:26.408Z,1.70
2023-08-04T15:14:54.538Z,1.50
2023-08-04T15:17:22.704Z,1.30
2023-08-04T15:19:51.110Z,1.70
2023-08-04T15:22:19.033Z,1.90
2023-08-04T15:24:46.836Z,1.10
2023-08-04T15:27:16.957Z,1.30
2023-08-04T15:29:47.877Z,1.30
2023-08-04T15:32:15.748Z,1.50
2023-08-04T15:34:44.032Z,1.60
2023-08-04T15:37:12.193Z,1.30
2023-08-04T15:39:40.245Z,1.80
2023-08-04T15:42:09.931Z,1.30
2023-08-04T15:44:37.947Z,2.00
2023-08-04T15:47:10.452Z,1.20
2023-08-04T15:49:38.701Z,1.60
2023-08-04T15:52:07.438Z,1.40
2023-08-04T15:54:36.442Z,1.60
2023-08-04T15:57:04.492Z,1.60
2023-08-04T15:59:34.333Z,1.40
2023-08-04T16:02:09.214Z,1.60
2023-08-04T16:04:37.036Z,2.50
2023-08-04T16:07:05.329Z,2.90
2023-08-04T16:09:34.477Z,1.80
2023-08-04T16:12:03.732Z,2.10
2023-08-04T16:14:31.677Z,1.70
2023-08-04T16:17:05.807Z,2.00
2023-08-04T16:19:35.090Z,1.40
2023-08-04T16:22:05.451Z,2.60
2023-08-04T16:24:33.851Z,1.60
2023-08-04T16:27:02.139Z,1.80
2023-08-04T16:29:52.448Z,2.30
2023-08-04T16:32:20.804Z,1.90
2023-08-04T16:34:49.422Z,1.90
2023-08-04T16:37:17.446Z,2.10
2023-08-04T16:39:45.686Z,1.70
2023-08-04T16:42:13.703Z,1.90
2023-08-04T16:44:42.005Z,2.00
2023-08-04T16:47:10.565Z,1.80
2023-08-04T16:49:38.712Z,1.80
2023-08-04T16:52:07.140Z,2.00
2023-08-04T16:54:55.118Z,1.60
2023-08-04T16:57:30.292Z,1.40
2023-08-04T16:59:58.459Z,1.50
2023-08-04T17:02:33.192Z,2.00
2023-08-04T17:05:01.548Z,1.80
2023-08-04T17:07:30.921Z,2.00
2023-08-04T17:10:03.097Z,2.70
2023-08-04T17:12:31.203Z,1.90
2023-08-04T17:15:02.331Z,1.60
2023-08-04T17:17:30.395Z,1.70
2023-08-04T17:19:58.359Z,1.70
2023-08-04T17:22:26.960Z,1.90
2023-08-04T17:24:55.412Z,1.90
2023-08-04T17:27:23.774Z,1.70
2023-08-04T17:29:52.772Z,2.70
2023-08-04T17:32:21.087Z,2.90
2023-08-04T17:34:48.990Z,6.40
2023-08-04T17:37:37.554Z,3.00
2023-08-04T17:40:06.193Z,1.60
2023-08-04T17:42:36.096Z,1.60
2023-08-04T17:45:28.030Z,2.00
2023-08-04T17:47:56.064Z,2.70
2023-08-04T17:50:23.998Z,1.70
2023-08-04T17:52:52.622Z,2.00
2023-08-04T17:55:20.482Z,2.50
2023-08-04T17:57:50.869Z,2.70
2023-08-04T18:00:19.184Z,2.60
2023-08-04T18:02:54.068Z,2.90
2023-08-04T18:05:22.007Z,3.00
2023-08-04T18:07:49.856Z,3.10
2023-08-04T18:10:17.695Z,2.90
2023-08-04T18:12:45.650Z,2.70
2023-08-04T18:15:13.705Z,2.70
2023-08-04T18:17:41.878Z,3.00
2023-08-04T18:20:10.545Z,2.80
2023-08-04T18:22:38.517Z,3.20
2023-08-04T18:25:07.664Z,3.10
2023-08-04T18:27:36.306Z,3.20
2023-08-04T18:30:05.313Z,3.80
2023-08-04T18:32:36.053Z,4.00
2023-08-04T18:35:12.587Z,4.20
2023-08-04T18:37:50.480Z,2.90
2023-08-04T18:40:25.480Z,3.40
2023-08-04T18:42:53.370Z,3.30
2023-08-04T18:45:21.252Z,3.70
2023-08-04T18:47:55.847Z,3.60
2023-08-04T18:50:29.868Z,3.60
2023-08-04T18:52:58.080Z,3.50
2023-08-04T18:55:25.960Z,4.20
2023-08-04T18:57:53.843Z,4.30
2023-08-04T19:00:25.736Z,3.80
2023-08-04T19:02:53.691Z,3.50
2023-08-04T19:05:21.702Z,4.20
2023-08-04T19:07:49.992Z,5.80
2023-08-04T19:10:20.537Z,5.80
2023-08-04T19:12:48.638Z,6.20
2023-08-04T19:15:19.472Z,6.10
2023-08-04T19:17:47.412Z,5.10
2023-08-04T19:20:15.549Z,5.50
2023-08-04T19:22:45.184Z,5.80
2023-08-04T19:25:13.232Z,6.00
2023-08-04T19:27:44.365Z,7.00
2023-08-04T19:30:12.837Z,5.90
2023-08-04T19:32:40.810Z,6.30
2023-08-04T19:35:09.988Z,4.70
2023-08-04T19:37:38.083Z,4.80
2023-08-04T19:40:13.252Z,4.90
2023-08-04T19:42:41.431Z,4.10
2023-08-04T19:45:09.952Z,3.50
2023-08-04T19:47:38.443Z,4.90
2023-08-04T19:50:14.659Z,4.70
2023-08-04T19:52:49.459Z,5.10
2023-08-04T19:55:28.967Z,6.70
2023-08-04T19:58:05.546Z,4.90
2023-08-04T20:00:44.521Z,4.70
2023-08-04T20:03:12.796Z,4.00
2023-08-04T20:05:40.917Z,3.80
2023-08-04T20:08:09.134Z,3.90
2023-08-04T20:10:37.495Z,3.70
2023-08-04T20:13:05.498Z,4.90
2023-08-04T20:15:33.718Z,5.40
2023-08-04T20:18:02.226Z,6.50
2023-08-04T20:20:32.021Z,4.70
2023-08-04T20:23:00.034Z,6.20
2023-08-04T20:25:28.357Z,13.80
2023-08-04T20:27:56.324Z,9.20
2023-08-04T20:30:24.312Z,8.70
2023-08-04T20:32:52.391Z,8.30
2023-08-04T20:35:20.433Z,6.30
2023-08-04T20:37:48.491Z,5.70
2023-08-04T20:40:17.243Z,5.10
2023-08-04T20:42:46.225Z,4.50
2023-08-04T20:45:14.201Z,4.40
2023-08-04T20:47:43.882Z,4.00
2023-08-04T20:50:12.069Z,4.40
2023-08-04T20:52:40.027Z,4.10
2023-08-04T20:55:08.128Z,4.20
2023-08-04T20:57:36.257Z,3.80
2023-08-04T21:00:04.856Z,3.60
2023-08-04T21:02:33.071Z,3.50
2023-08-04T21:05:01.111Z,3.70
2023-08-04T21:07:29.894Z,3.20
2023-08-04T21:09:57.768Z,3.70
2023-08-04T21:12:25.757Z,5.40
2023-08-04T21:14:53.779Z,6.90
2023-08-04T21:17:22.130Z,7.60
2023-08-04T21:19:54.435Z,9.10
2023-08-04T21:22:23.111Z,5.40
2023-08-04T21:24:50.948Z,6.20
2023-08-04T21:27:18.867Z,5.50
2023-08-04T21:29:46.987Z,4.90
2023-08-04T21:32:14.952Z,4.30
2023-08-04T21:34:49.349Z,5.00
2023-08-04T21:37:18.643Z,5.40
2023-08-04T21:39:46.711Z,5.00
2023-08-04T21:42:15.283Z,4.70
2023-08-04T21:44:43.433Z,5.20
2023-08-04T21:47:12.913Z,4.50
2023-08-04T21:49:40.966Z,4.70
2023-08-04T21:52:09.255Z,3.90
2023-08-04T21:54:37.305Z,4.50
2023-08-04T21:57:05.447Z,6.10
2023-08-04T21:59:33.465Z,7.50
2023-08-04T22:02:01.570Z,8.40
2023-08-04T22:04:29.699Z,6.90
2023-08-04T22:06:57.585Z,7.30
2023-08-04T22:09:25.691Z,7.60
2023-08-04T22:11:53.599Z,5.30
2023-08-04T22:14:23.949Z,6.00
2023-08-04T22:16:53.842Z,7.10
2023-08-04T22:19:23.268Z,5.20
2023-08-04T22:21:53.619Z,5.00
2023-08-04T22:24:22.839Z,4.70
2023-08-04T22:26:51.072Z,5.30
2023-08-04T22:29:19.246Z,6.50
2023-08-04T22:31:47.245Z,7.00
2023-08-04T22:34:15.169Z,8.50
2023-08-04T22:36:47.176Z,6.60
2023-08-04T22:39:15.478Z,6.10
2023-08-04T22:41:43.952Z,5.70
2023-08-04T22:44:12.624Z,5.00
2023-08-04T22:46:40.505Z,4.30
2023-08-04T22:49:08.677Z,5.20
2023-08-04T22:51:36.708Z,4.50
2023-08-04T22:54:05.767Z,4.40
2023-08-04T22:56:35.125Z,4.90
2023-08-04T22:59:03.022Z,4.80
2023-08-04T23:01:30.941Z,4.20
2023-08-04T23:03:58.947Z,6.10
2023-08-04T23:06:26.853Z,6.30
2023-08-04T23:08:54.811Z,6.10
2023-08-04T23:11:23.557Z,6.10
2023-08-04T23:13:51.524Z,5.80
2023-08-04T23:16:26.264Z,6.50
2023-08-04T23:18:54.530Z,6.30
2023-08-04T23:21:22.880Z,5.70
2023-08-04T23:23:50.924Z,5.80
2023-08-04T23:26:18.874Z,6.00
2023-08-04T23:28:47.343Z,6.10
2023-08-04T23:31:15.338Z,6.20
2023-08-04T23:33:43.491Z,5.60
2023-08-04T23:36:11.464Z,5.70
2023-08-04T23:38:43.215Z,5.70
2023-08-04T23:41:11.678Z,5.70
2023-08-04T23:43:39.753Z,5.80
2023-08-04T23:46:07.859Z,5.80
2023-08-04T23:48:35.931Z,5.20
2023-08-04T23:51:04.062Z,4.60
2023-08-04T23:53:32.087Z,4.60
2023-08-04T23:55:59.977Z,4.40
2023-08-04T23:58:28.327Z,3.90
